sensor_id;sensor_type;location;lat;lon;timestamp;pressure;altitude;pressure_sealevel;temperature;humidity
19759;BME280;10038;42.662;23.278;2023-04-30T00:00:28;161335.50;;;10.05;91.25
19759;BME280;10038;42.662;23.278;2023-04-30T00:02:55;161426.16;;;10.39;92.22
19759;BME280;10038;42.662;23.278;2023-04-30T00:05:23;161420.84;;;10.37;92.21
19759;BME280;10038;42.662;23.278;2023-04-30T00:07:50;161418.16;;;10.36;92.20
19759;BME280;10038;42.662;23.278;2023-04-30T00:10:17;161418.16;;;10.36;91.56
19759;BME280;10038;42.662;23.278;2023-04-30T00:12:44;161402.16;;;10.30;92.66
19759;BME280;10038;42.662;23.278;2023-04-30T00:15:11;161352.81;;;10.12;93.57
19759;BME280;10038;42.662;23.278;2023-04-30T00:17:38;161287.50;;;9.87;95.31
19759;BME280;10038;42.662;23.278;2023-04-30T00:20:06;161295.50;;;9.90;94.74
19759;BME280;10038;42.662;23.278;2023-04-30T00:22:34;161291.53;;;9.88;94.91
19759;BME280;10038;42.662;23.278;2023-04-30T00:25:01;161275.53;;;9.82;95.07
19759;BME280;10038;42.662;23.278;2023-04-30T00:27:27;161228.88;;;9.65;94.90
19759;BME280;10038;42.662;23.278;2023-04-30T00:29:55;161164.97;;;9.40;95.54
19759;BME280;10038;42.662;23.278;2023-04-30T00:32:22;161176.94;;;9.45;95.62
19759;BME280;10038;42.662;23.278;2023-04-30T00:34:49;161210.25;;;9.58;95.53
19759;BME280;10038;42.662;23.278;2023-04-30T00:37:16;161194.25;;;9.52;95.04
19759;BME280;10038;42.662;23.278;2023-04-30T00:39:44;161158.31;;;9.38;95.93
19759;BME280;10038;42.662;23.278;2023-04-30T00:42:11;161196.94;;;9.53;95.69
19759;BME280;10038;42.662;23.278;2023-04-30T00:44:38;161184.94;;;9.48;95.85
19759;BME280;10038;42.662;23.278;2023-04-30T00:47:05;161143.66;;;9.32;96.45
19759;BME280;10038;42.662;23.278;2023-04-30T00:49:32;161158.31;;;9.38;96.15
19759;BME280;10038;42.662;23.278;2023-04-30T00:51:59;161133.03;;;9.28;96.23
19759;BME280;10038;42.662;23.278;2023-04-30T00:54:26;161140.97;;;9.31;95.96
19759;BME280;10038;42.662;23.278;2023-04-30T00:56:54;161119.66;;;9.23;96.05
19759;BME280;10038;42.662;23.278;2023-04-30T00:59:21;161106.34;;;9.18;96.43
19759;BME280;10038;42.662;23.278;2023-04-30T01:01:48;161045.13;;;8.95;96.88
19759;BME280;10038;42.662;23.278;2023-04-30T01:04:16;161098.34;;;9.15;97.03
19759;BME280;10038;42.662;23.278;2023-04-30T01:06:43;161114.34;;;9.21;96.72
19759;BME280;10038;42.662;23.278;2023-04-30T01:09:11;161101.03;;;9.16;96.59
19759;BME280;10038;42.662;23.278;2023-04-30T01:11:48;161021.16;;;8.86;97.71
19759;BME280;10038;42.662;23.278;2023-04-30T01:14:27;161034.47;;;8.91;98.32
19759;BME280;10038;42.662;23.278;2023-04-30T01:17:02;161038.47;;;8.93;98.09
19759;BME280;10038;42.662;23.278;2023-04-30T01:19:37;160991.88;;;8.75;98.58
19759;BME280;10038;42.662;23.278;2023-04-30T01:22:11;160846.75;;;8.20;98.38
19759;BME280;10038;42.662;23.278;2023-04-30T01:24:57;160991.88;;;8.75;98.55
19759;BME280;10038;42.662;23.278;2023-04-30T01:27:49;160975.88;;;8.69;98.41
19759;BME280;10038;42.662;23.278;2023-04-30T01:30:21;160953.25;;;8.60;98.91
19759;BME280;10038;42.662;23.278;2023-04-30T01:32:49;160989.19;;;8.74;98.65
19759;BME280;10038;42.662;23.278;2023-04-30T01:35:16;160953.25;;;8.60;99.22
19759;BME280;10038;42.662;23.278;2023-04-30T01:37:51;160965.25;;;8.65;99.54
19759;BME280;10038;42.662;23.278;2023-04-30T01:40:32;161005.16;;;8.80;98.88
19759;BME280;10038;42.662;23.278;2023-04-30T01:43:10;161010.47;;;8.82;98.18
19759;BME280;10038;42.662;23.278;2023-04-30T01:45:50;160957.25;;;8.62;98.05
19759;BME280;10038;42.662;23.278;2023-04-30T01:48:39;161009.19;;;8.81;98.24
19759;BME280;10038;42.662;23.278;2023-04-30T01:51:14;160979.91;;;8.70;98.57
19759;BME280;10038;42.662;23.278;2023-04-30T01:53:43;160993.19;;;8.75;98.56
19759;BME280;10038;42.662;23.278;2023-04-30T01:56:17;161006.50;;;8.80;98.34
19759;BME280;10038;42.662;23.278;2023-04-30T01:58:48;161013.16;;;8.83;98.08
19759;BME280;10038;42.662;23.278;2023-04-30T02:01:26;161007.84;;;8.81;98.05
19759;BME280;10038;42.662;23.278;2023-04-30T02:03:53;161021.16;;;8.86;97.97
19759;BME280;10038;42.662;23.278;2023-04-30T02:06:20;161051.78;;;8.98;97.31
19759;BME280;10038;42.662;23.278;2023-04-30T02:08:50;160982.53;;;8.71;98.49
19759;BME280;10038;42.662;23.278;2023-04-30T02:11:17;161039.78;;;8.93;97.63
19759;BME280;10038;42.662;23.278;2023-04-30T02:13:43;161062.41;;;9.02;97.19
19759;BME280;10038;42.662;23.278;2023-04-30T02:16:12;160997.19;;;8.77;97.72
19759;BME280;10038;42.662;23.278;2023-04-30T02:18:38;161025.13;;;8.87;97.55
19759;BME280;10038;42.662;23.278;2023-04-30T02:21:05;161061.06;;;9.01;96.90
19759;BME280;10038;42.662;23.278;2023-04-30T02:23:32;161075.72;;;9.07;96.78
19759;BME280;10038;42.662;23.278;2023-04-30T02:25:59;161079.75;;;9.08;96.93
19759;BME280;10038;42.662;23.278;2023-04-30T02:28:27;161053.13;;;8.98;97.48
19759;BME280;10038;42.662;23.278;2023-04-30T02:30:54;161079.75;;;9.08;97.25
19759;BME280;10038;42.662;23.278;2023-04-30T02:33:22;161081.06;;;9.09;97.52
19759;BME280;10038;42.662;23.278;2023-04-30T02:35:49;161079.75;;;9.08;97.88
19759;BME280;10038;42.662;23.278;2023-04-30T02:38:16;161103.72;;;9.17;97.58
19759;BME280;10038;42.662;23.278;2023-04-30T02:40:43;161131.69;;;9.28;97.35
19759;BME280;10038;42.662;23.278;2023-04-30T02:43:09;161168.97;;;9.42;96.82
19759;BME280;10038;42.662;23.278;2023-04-30T02:45:36;161188.94;;;9.49;96.44
19759;BME280;10038;42.662;23.278;2023-04-30T02:48:03;161069.06;;;9.04;96.24
19759;BME280;10038;42.662;23.278;2023-04-30T02:50:32;161175.63;;;9.44;96.70
19759;BME280;10038;42.662;23.278;2023-04-30T02:52:58;161218.25;;;9.61;96.17
19759;BME280;10038;42.662;23.278;2023-04-30T02:55:25;161222.22;;;9.62;96.26
19759;BME280;10038;42.662;23.278;2023-04-30T02:57:52;161240.91;;;9.69;96.41
19759;BME280;10038;42.662;23.278;2023-04-30T03:00:19;161256.84;;;9.75;96.25
19759;BME280;10038;42.662;23.278;2023-04-30T03:02:46;161226.25;;;9.64;96.92
19759;BME280;10038;42.662;23.278;2023-04-30T03:05:13;161236.88;;;9.68;97.00
19759;BME280;10038;42.662;23.278;2023-04-30T03:07:42;161252.88;;;9.74;96.87
19759;BME280;10038;42.662;23.278;2023-04-30T03:10:09;161270.22;;;9.80;96.48
19759;BME280;10038;42.662;23.278;2023-04-30T03:12:36;161236.88;;;9.68;96.38
19759;BME280;10038;42.662;23.278;2023-04-30T03:15:04;161259.53;;;9.76;96.42
19759;BME280;10038;42.662;23.278;2023-04-30T03:17:31;161282.19;;;9.85;95.63
19759;BME280;10038;42.662;23.278;2023-04-30T03:19:57;161308.81;;;9.95;95.64
19759;BME280;10038;42.662;23.278;2023-04-30T03:22:24;161291.53;;;9.88;95.97
19759;BME280;10038;42.662;23.278;2023-04-30T03:24:52;161311.50;;;9.96;96.19
19759;BME280;10038;42.662;23.278;2023-04-30T03:27:19;161342.16;;;10.07;95.57
19759;BME280;10038;42.662;23.278;2023-04-30T03:29:47;161312.84;;;9.96;96.42
19759;BME280;10038;42.662;23.278;2023-04-30T03:32:14;161306.19;;;9.94;96.72
19759;BME280;10038;42.662;23.278;2023-04-30T03:34:41;161328.84;;;10.02;95.97
19759;BME280;10038;42.662;23.278;2023-04-30T03:37:08;161331.47;;;10.03;96.21
19759;BME280;10038;42.662;23.278;2023-04-30T03:39:34;161351.44;;;10.11;96.34
19759;BME280;10038;42.662;23.278;2023-04-30T03:42:03;161347.47;;;10.09;96.31
19759;BME280;10038;42.662;23.278;2023-04-30T03:44:29;161383.50;;;10.23;95.75
19759;BME280;10038;42.662;23.278;2023-04-30T03:46:56;161415.53;;;10.35;95.27
19759;BME280;10038;42.662;23.278;2023-04-30T03:49:23;161458.16;;;10.51;95.27
19759;BME280;10038;42.662;23.278;2023-04-30T03:51:50;161463.47;;;10.53;95.31
19759;BME280;10038;42.662;23.278;2023-04-30T03:54:17;161426.16;;;10.39;94.95
19759;BME280;10038;42.662;23.278;2023-04-30T03:56:44;161462.16;;;10.53;94.94
19759;BME280;10038;42.662;23.278;2023-04-30T03:59:12;161463.47;;;10.53;94.72
19759;BME280;10038;42.662;23.278;2023-04-30T04:01:39;161399.50;;;10.29;94.88
19759;BME280;10038;42.662;23.278;2023-04-30T04:04:06;161519.47;;;10.75;94.37
19759;BME280;10038;42.662;23.278;2023-04-30T04:06:33;161528.81;;;10.78;93.38
19759;BME280;10038;42.662;23.278;2023-04-30T04:08:59;161535.47;;;10.81;93.14
19759;BME280;10038;42.662;23.278;2023-04-30T04:11:26;161567.50;;;10.93;93.33
19759;BME280;10038;42.662;23.278;2023-04-30T04:13:53;161564.81;;;10.92;93.32
19759;BME280;10038;42.662;23.278;2023-04-30T04:16:21;161588.81;;;11.01;92.88
19759;BME280;10038;42.662;23.278;2023-04-30T04:18:48;161612.78;;;11.10;92.48
19759;BME280;10038;42.662;23.278;2023-04-30T04:21:15;161624.81;;;11.14;92.30
19759;BME280;10038;42.662;23.278;2023-04-30T04:23:42;161652.81;;;11.25;91.47
19759;BME280;10038;42.662;23.278;2023-04-30T04:26:09;161647.50;;;11.23;90.41
19759;BME280;10038;42.662;23.278;2023-04-30T04:28:37;161696.84;;;11.42;90.11
19759;BME280;10038;42.662;23.278;2023-04-30T04:31:04;161742.22;;;11.59;89.66
19759;BME280;10038;42.662;23.278;2023-04-30T04:33:33;161743.50;;;11.59;89.43
19759;BME280;10038;42.662;23.278;2023-04-30T04:36:01;161810.28;;;11.84;88.85
19759;BME280;10038;42.662;23.278;2023-04-30T04:38:28;161812.97;;;11.86;88.85
19759;BME280;10038;42.662;23.278;2023-04-30T04:40:55;161837.00;;;11.95;87.81
19759;BME280;10038;42.662;23.278;2023-04-30T04:43:22;161806.31;;;11.83;87.69
19759;BME280;10038;42.662;23.278;2023-04-30T04:45:48;161844.97;;;11.98;87.54
19759;BME280;10038;42.662;23.278;2023-04-30T04:48:16;161874.31;;;12.09;87.15
19759;BME280;10038;42.662;23.278;2023-04-30T04:50:44;161850.34;;;12.00;87.30
19759;BME280;10038;42.662;23.278;2023-04-30T04:53:11;161804.97;;;11.82;87.47
19759;BME280;10038;42.662;23.278;2023-04-30T04:55:38;161820.97;;;11.89;87.30
19759;BME280;10038;42.662;23.278;2023-04-30T04:58:05;161800.97;;;11.81;87.64
19759;BME280;10038;42.662;23.278;2023-04-30T05:00:32;161844.97;;;11.98;86.36
19759;BME280;10038;42.662;23.278;2023-04-30T05:02:59;161822.31;;;11.89;86.51
19759;BME280;10038;42.662;23.278;2023-04-30T05:05:26;161861.00;;;12.04;86.17
19759;BME280;10038;42.662;23.278;2023-04-30T05:07:54;161898.38;;;12.18;85.51
19759;BME280;10038;42.662;23.278;2023-04-30T05:10:21;161901.06;;;12.19;85.25
19759;BME280;10038;42.662;23.278;2023-04-30T05:12:48;161903.69;;;12.20;85.48
19759;BME280;10038;42.662;23.278;2023-04-30T05:15:14;161901.06;;;12.19;85.76
19759;BME280;10038;42.662;23.278;2023-04-30T05:17:41;161911.69;;;12.23;85.93
19759;BME280;10038;42.662;23.278;2023-04-30T05:20:10;161906.38;;;12.21;85.19
19759;BME280;10038;42.662;23.278;2023-04-30T05:22:37;161903.69;;;12.20;86.08
19759;BME280;10038;42.662;23.278;2023-04-30T05:25:06;161933.06;;;12.31;86.26
19759;BME280;10038;42.662;23.278;2023-04-30T05:27:33;161954.41;;;12.39;86.03
19759;BME280;10038;42.662;23.278;2023-04-30T05:30:00;161941.06;;;12.34;84.64
19759;BME280;10038;42.662;23.278;2023-04-30T05:32:28;161994.47;;;12.54;84.61
19759;BME280;10038;42.662;23.278;2023-04-30T05:34:55;161973.13;;;12.46;84.40
19759;BME280;10038;42.662;23.278;2023-04-30T05:37:22;161991.78;;;12.53;84.07
19759;BME280;10038;42.662;23.278;2023-04-30T05:39:49;162018.53;;;12.63;83.70
19759;BME280;10038;42.662;23.278;2023-04-30T05:42:19;162085.25;;;12.88;82.68
19759;BME280;10038;42.662;23.278;2023-04-30T05:44:49;162089.28;;;12.90;83.47
19759;BME280;10038;42.662;23.278;2023-04-30T05:47:15;162124.00;;;13.03;82.33
19759;BME280;10038;42.662;23.278;2023-04-30T05:49:42;162115.97;;;13.00;82.30
19759;BME280;10038;42.662;23.278;2023-04-30T05:52:09;162125.34;;;13.03;82.27
19759;BME280;10038;42.662;23.278;2023-04-30T05:54:36;162168.13;;;13.20;82.36
19759;BME280;10038;42.662;23.278;2023-04-30T05:57:03;162117.31;;;13.00;81.81
19759;BME280;10038;42.662;23.278;2023-04-30T05:59:31;162218.88;;;13.39;81.40
19759;BME280;10038;42.662;23.278;2023-04-30T06:01:58;162252.25;;;13.51;80.38
19759;BME280;10038;42.662;23.278;2023-04-30T06:04:25;162257.63;;;13.53;80.29
19759;BME280;10038;42.662;23.278;2023-04-30T06:06:51;162317.72;;;13.76;80.14
19759;BME280;10038;42.662;23.278;2023-04-30T06:09:18;162328.44;;;13.80;78.75
19759;BME280;10038;42.662;23.278;2023-04-30T06:11:45;162307.06;;;13.72;77.87
19759;BME280;10038;42.662;23.278;2023-04-30T06:14:14;162443.38;;;14.24;77.07
19759;BME280;10038;42.662;23.278;2023-04-30T06:16:43;162442.03;;;14.23;75.51
19759;BME280;10038;42.662;23.278;2023-04-30T06:19:10;162447.41;;;14.25;74.53
19759;BME280;10038;42.662;23.278;2023-04-30T06:21:37;162499.59;;;14.45;73.26
19759;BME280;10038;42.662;23.278;2023-04-30T06:24:04;162459.41;;;14.30;74.21
19759;BME280;10038;42.662;23.278;2023-04-30T06:26:31;162507.56;;;14.48;73.34
19759;BME280;10038;42.662;23.278;2023-04-30T06:28:58;162569.09;;;14.71;71.67
19759;BME280;10038;42.662;23.278;2023-04-30T06:31:25;162615.91;;;14.89;72.28
19759;BME280;10038;42.662;23.278;2023-04-30T06:33:53;162669.38;;;15.09;71.75
19759;BME280;10038;42.662;23.278;2023-04-30T06:36:20;162696.16;;;15.19;70.90
19759;BME280;10038;42.662;23.278;2023-04-30T06:38:47;162780.47;;;15.51;69.45
19759;BME280;10038;42.662;23.278;2023-04-30T06:41:17;162945.06;;;16.13;68.13
19759;BME280;10038;42.662;23.278;2023-04-30T06:43:43;163192.81;;;17.06;63.55
19759;BME280;10038;42.662;23.278;2023-04-30T06:46:10;163344.25;;;17.63;61.78
19759;BME280;10038;42.662;23.278;2023-04-30T06:48:37;163417.97;;;17.91;59.32
19759;BME280;10038;42.662;23.278;2023-04-30T06:51:05;163831.03;;;19.46;55.82
19759;BME280;10038;42.662;23.278;2023-04-30T06:53:32;164107.50;;;20.50;52.64
19759;BME280;10038;42.662;23.278;2023-04-30T06:55:59;163986.69;;;20.05;53.63
19759;BME280;10038;42.662;23.278;2023-04-30T06:58:26;163872.59;;;19.62;53.68
19759;BME280;10038;42.662;23.278;2023-04-30T07:00:52;163818.97;;;19.41;55.50
19759;BME280;10038;42.662;23.278;2023-04-30T07:03:19;163837.72;;;19.49;54.74
19759;BME280;10038;42.662;23.278;2023-04-30T07:05:46;163584.22;;;18.53;56.62
19759;BME280;10038;42.662;23.278;2023-04-30T07:08:14;163553.31;;;18.42;58.32
19759;BME280;10038;42.662;23.278;2023-04-30T07:10:42;163407.22;;;17.87;59.32
19759;BME280;10038;42.662;23.278;2023-04-30T07:13:08;163108.44;;;16.74;62.65
19759;BME280;10038;42.662;23.278;2023-04-30T07:15:36;163202.19;;;17.09;63.22
19759;BME280;10038;42.662;23.278;2023-04-30T07:18:03;163224.97;;;17.18;62.74
19759;BME280;10038;42.662;23.278;2023-04-30T07:20:30;163447.44;;;18.02;61.10
19759;BME280;10038;42.662;23.278;2023-04-30T07:22:56;163480.94;;;18.14;61.49
19759;BME280;10038;42.662;23.278;2023-04-30T07:25:25;163434.00;;;17.97;60.11
19759;BME280;10038;42.662;23.278;2023-04-30T07:27:51;163458.16;;;18.06;59.77
19759;BME280;10038;42.662;23.278;2023-04-30T07:30:18;163388.47;;;17.80;59.61
19759;BME280;10038;42.662;23.278;2023-04-30T07:32:46;163337.56;;;17.60;59.93
19759;BME280;10038;42.662;23.278;2023-04-30T07:35:13;163289.25;;;17.42;60.54
19759;BME280;10038;42.662;23.278;2023-04-30T07:37:40;163271.88;;;17.36;61.61
19759;BME280;10038;42.662;23.278;2023-04-30T07:40:09;163107.09;;;16.74;62.82
19759;BME280;10038;42.662;23.278;2023-04-30T07:42:39;163093.72;;;16.69;63.71
19759;BME280;10038;42.662;23.278;2023-04-30T07:45:07;163044.13;;;16.50;65.41
19759;BME280;10038;42.662;23.278;2023-04-30T07:47:34;163049.47;;;16.52;65.50
19759;BME280;10038;42.662;23.278;2023-04-30T07:50:01;163100.41;;;16.71;66.73
19759;BME280;10038;42.662;23.278;2023-04-30T07:52:28;163353.59;;;17.66;62.45
19759;BME280;10038;42.662;23.278;2023-04-30T07:54:55;163380.44;;;17.77;62.70
19759;BME280;10038;42.662;23.278;2023-04-30T07:57:21;163337.56;;;17.60;61.85
19759;BME280;10038;42.662;23.278;2023-04-30T07:59:52;163204.88;;;17.10;62.03
19759;BME280;10038;42.662;23.278;2023-04-30T08:02:19;163172.72;;;16.98;62.32
19759;BME280;10038;42.662;23.278;2023-04-30T08:04:46;163036.09;;;16.47;63.42
19759;BME280;10038;42.662;23.278;2023-04-30T08:07:13;163026.72;;;16.43;62.70
19759;BME280;10038;42.662;23.278;2023-04-30T08:09:41;163013.34;;;16.38;63.73
19759;BME280;10038;42.662;23.278;2023-04-30T08:12:08;162967.81;;;16.21;64.99
19759;BME280;10038;42.662;23.278;2023-04-30T08:14:35;163008.00;;;16.36;64.67
19759;BME280;10038;42.662;23.278;2023-04-30T08:17:07;162954.44;;;16.16;64.30
19759;BME280;10038;42.662;23.278;2023-04-30T08:22:06;162999.97;;;16.33;63.19
19759;BME280;10038;42.662;23.278;2023-04-30T08:24:35;163091.03;;;16.68;62.72
19759;BME280;10038;42.662;23.278;2023-04-30T08:27:02;163101.75;;;16.72;61.82
19759;BME280;10038;42.662;23.278;2023-04-30T08:29:29;163212.94;;;17.14;60.92
19759;BME280;10038;42.662;23.278;2023-04-30T08:32:00;163179.41;;;17.01;61.11
19759;BME280;10038;42.662;23.278;2023-04-30T08:34:29;163223.63;;;17.18;59.27
19759;BME280;10038;42.662;23.278;2023-04-30T08:36:56;163349.59;;;17.65;57.76
19759;BME280;10038;42.662;23.278;2023-04-30T08:39:23;163413.91;;;17.89;55.98
19759;BME280;10038;42.662;23.278;2023-04-30T08:41:54;163735.72;;;19.10;53.43
19759;BME280;10038;42.662;23.278;2023-04-30T08:44:21;164631.53;;;22.47;44.81
19759;BME280;10038;42.662;23.278;2023-04-30T08:46:51;164670.47;;;22.61;42.74
19759;BME280;10038;42.662;23.278;2023-04-30T08:49:19;165072.75;;;24.12;40.24
19759;BME280;10038;42.662;23.278;2023-04-30T08:51:48;165775.88;;;26.75;35.98
19759;BME280;10038;42.662;23.278;2023-04-30T08:54:15;165589.88;;;26.06;34.76
19759;BME280;10038;42.662;23.278;2023-04-30T08:56:44;165821.72;;;26.92;33.72
19759;BME280;10038;42.662;23.278;2023-04-30T08:59:11;165902.59;;;27.23;33.47
19759;BME280;10038;42.662;23.278;2023-04-30T09:01:38;165593.88;;;26.07;34.02
19759;BME280;10038;42.662;23.278;2023-04-30T09:04:05;166121.16;;;28.04;33.27
19759;BME280;10038;42.662;23.278;2023-04-30T09:06:32;166104.91;;;27.98;32.07
19759;BME280;10038;42.662;23.278;2023-04-30T09:09:08;165978.16;;;27.51;32.19
19759;BME280;10038;42.662;23.278;2023-04-30T09:11:35;166118.44;;;28.03;31.57
19759;BME280;10038;42.662;23.278;2023-04-30T09:14:02;165885.09;;;27.16;32.38
19759;BME280;10038;42.662;23.278;2023-04-30T09:16:43;165894.50;;;27.20;32.21
19759;BME280;10038;42.662;23.278;2023-04-30T09:19:21;165867.56;;;27.10;32.20
19759;BME280;10038;42.662;23.278;2023-04-30T09:21:48;166063.06;;;27.83;31.46
19759;BME280;10038;42.662;23.278;2023-04-30T09:24:16;165792.06;;;26.81;32.51
19759;BME280;10038;42.662;23.278;2023-04-30T09:26:44;165549.44;;;25.91;34.19
19759;BME280;10038;42.662;23.278;2023-04-30T09:29:12;165701.75;;;26.48;32.72
19759;BME280;10038;42.662;23.278;2023-04-30T09:31:42;165943.06;;;27.38;31.28
19759;BME280;10038;42.662;23.278;2023-04-30T09:34:09;165872.94;;;27.12;31.72
19759;BME280;10038;42.662;23.278;2023-04-30T09:36:36;165216.78;;;24.66;35.25
19759;BME280;10038;42.662;23.278;2023-04-30T09:39:07;164926.06;;;23.57;37.38
19759;BME280;10038;42.662;23.278;2023-04-30T09:41:37;165629.00;;;26.20;34.29
19759;BME280;10038;42.662;23.278;2023-04-30T09:44:04;165716.59;;;26.53;32.63
19759;BME280;10038;42.662;23.278;2023-04-30T09:46:32;165886.41;;;27.17;32.50
19759;BME280;10038;42.662;23.278;2023-04-30T09:49:02;165786.69;;;26.79;32.83
19759;BME280;10038;42.662;23.278;2023-04-30T09:51:29;165968.69;;;27.47;31.71
19759;BME280;10038;42.662;23.278;2023-04-30T09:53:57;165511.75;;;25.76;34.18
19759;BME280;10038;42.662;23.278;2023-04-30T09:56:25;165169.66;;;24.48;36.24
19759;BME280;10038;42.662;23.278;2023-04-30T09:58:54;164883.03;;;23.41;38.21
19759;BME280;10038;42.662;23.278;2023-04-30T10:01:24;165228.88;;;24.71;37.09
19759;BME280;10038;42.662;23.278;2023-04-30T10:03:52;165657.28;;;26.31;33.32
19759;BME280;10038;42.662;23.278;2023-04-30T10:06:20;165980.88;;;27.52;32.54
19759;BME280;10038;42.662;23.278;2023-04-30T10:08:50;166158.88;;;28.19;30.56
19759;BME280;10038;42.662;23.278;2023-04-30T10:11:18;165549.44;;;25.91;32.96
19759;BME280;10038;42.662;23.278;2023-04-30T10:13:52;165130.59;;;24.34;35.97
19759;BME280;10038;42.662;23.278;2023-04-30T10:16:29;164759.25;;;22.95;37.56
19759;BME280;10038;42.662;23.278;2023-04-30T10:19:06;164287.53;;;21.17;41.90
19759;BME280;10038;42.662;23.278;2023-04-30T10:21:38;164021.56;;;20.18;43.67
19759;BME280;10038;42.662;23.278;2023-04-30T10:24:08;163966.50;;;19.97;44.22
19759;BME280;10038;42.662;23.278;2023-04-30T10:26:36;163726.31;;;19.07;49.76
19759;BME280;10038;42.662;23.278;2023-04-30T10:29:04;163554.66;;;18.42;56.48
19759;BME280;10038;42.662;23.278;2023-04-30T10:31:35;163341.56;;;17.62;65.41
19759;BME280;10038;42.662;23.278;2023-04-30T10:34:09;163164.69;;;16.95;77.29
19759;BME280;10038;42.662;23.278;2023-04-30T10:36:42;162975.84;;;16.24;76.65
19759;BME280;10038;42.662;23.278;2023-04-30T10:39:17;162908.91;;;15.99;81.70
19759;BME280;10038;42.662;23.278;2023-04-30T10:41:47;162973.19;;;16.23;80.91
19759;BME280;10038;42.662;23.278;2023-04-30T10:44:31;163133.88;;;16.84;82.66
19759;BME280;10038;42.662;23.278;2023-04-30T10:47:00;163602.97;;;18.60;75.75
19759;BME280;10038;42.662;23.278;2023-04-30T10:49:27;164184.06;;;20.79;63.39
19759;BME280;10038;42.662;23.278;2023-04-30T10:51:58;164217.59;;;20.91;60.44
19759;BME280;10038;42.662;23.278;2023-04-30T10:54:26;164419.16;;;21.67;59.65
19759;BME280;10038;42.662;23.278;2023-04-30T10:56:54;164134.41;;;20.60;59.54
19759;BME280;10038;42.662;23.278;2023-04-30T10:59:34;164188.06;;;20.80;59.49
19759;BME280;10038;42.662;23.278;2023-04-30T11:02:03;164128.97;;;20.58;57.59
19759;BME280;10038;42.662;23.278;2023-04-30T11:04:30;164378.84;;;21.52;59.58
19759;BME280;10038;42.662;23.278;2023-04-30T11:07:09;164569.69;;;22.23;54.06
19759;BME280;10038;42.662;23.278;2023-04-30T11:09:39;164784.84;;;23.04;45.72
19759;BME280;10038;42.662;23.278;2023-04-30T11:12:11;165201.97;;;24.60;44.06
19759;BME280;10038;42.662;23.278;2023-04-30T11:14:43;165246.41;;;24.77;40.29
19759;BME280;10038;42.662;23.278;2023-04-30T11:17:23;165294.88;;;24.95;38.34
19759;BME280;10038;42.662;23.278;2023-04-30T11:19:51;165254.53;;;24.80;40.04
19759;BME280;10038;42.662;23.278;2023-04-30T11:22:20;165123.88;;;24.31;40.34
19759;BME280;10038;42.662;23.278;2023-04-30T11:25:02;165010.84;;;23.89;41.56
19759;BME280;10038;42.662;23.278;2023-04-30T11:27:30;164700.09;;;22.72;42.72
19759;BME280;10038;42.662;23.278;2023-04-30T11:29:58;164304.94;;;21.24;44.62
19759;BME280;10038;42.662;23.278;2023-04-30T11:32:31;164229.69;;;20.96;45.50
19759;BME280;10038;42.662;23.278;2023-04-30T11:34:59;164360.03;;;21.45;45.61
19759;BME280;10038;42.662;23.278;2023-04-30T11:37:30;164486.34;;;21.92;43.70
19759;BME280;10038;42.662;23.278;2023-04-30T11:40:00;164616.75;;;22.41;42.59
19759;BME280;10038;42.662;23.278;2023-04-30T11:42:28;164519.97;;;22.05;42.79
19759;BME280;10038;42.662;23.278;2023-04-30T11:45:02;164541.47;;;22.13;43.66
19759;BME280;10038;42.662;23.278;2023-04-30T11:47:39;164795.56;;;23.08;42.78
19759;BME280;10038;42.662;23.278;2023-04-30T11:50:07;165048.50;;;24.03;38.90
19759;BME280;10038;42.662;23.278;2023-04-30T11:52:34;165343.34;;;25.13;36.61
19759;BME280;10038;42.662;23.278;2023-04-30T11:55:05;165328.53;;;25.08;34.91
19759;BME280;10038;42.662;23.278;2023-04-30T11:57:39;165619.56;;;26.17;34.78
19759;BME280;10038;42.662;23.278;2023-04-30T12:00:09;165412.03;;;25.39;37.91
19759;BME280;10038;42.662;23.278;2023-04-30T12:02:36;165282.78;;;24.91;37.77
19759;BME280;10038;42.662;23.278;2023-04-30T12:05:10;165296.25;;;24.96;39.28
19759;BME280;10038;42.662;23.278;2023-04-30T12:07:38;165403.94;;;25.36;38.73
19759;BME280;10038;42.662;23.278;2023-04-30T12:10:06;165067.38;;;24.10;40.04
19759;BME280;10038;42.662;23.278;2023-04-30T12:12:35;164669.13;;;22.61;41.15
19759;BME280;10038;42.662;23.278;2023-04-30T12:15:10;164476.97;;;21.89;43.25
19759;BME280;10038;42.662;23.278;2023-04-30T12:17:37;164209.53;;;20.88;48.58
19759;BME280;10038;42.662;23.278;2023-04-30T12:20:07;164021.56;;;20.18;52.06
19759;BME280;10038;42.662;23.278;2023-04-30T12:22:34;164004.09;;;20.11;51.13
19759;BME280;10038;42.662;23.278;2023-04-30T12:25:05;164032.28;;;20.22;52.34
19759;BME280;10038;42.662;23.278;2023-04-30T12:27:32;164032.28;;;20.22;52.68
19759;BME280;10038;42.662;23.278;2023-04-30T12:30:01;163833.72;;;19.47;54.97
19759;BME280;10038;42.662;23.278;2023-04-30T12:32:28;163696.81;;;18.96;55.77
19759;BME280;10038;42.662;23.278;2023-04-30T12:34:57;163547.97;;;18.40;55.47
19759;BME280;10038;42.662;23.278;2023-04-30T12:37:27;163546.63;;;18.39;56.54
19759;BME280;10038;42.662;23.278;2023-04-30T12:39:54;163420.63;;;17.92;57.83
19759;BME280;10038;42.662;23.278;2023-04-30T12:42:21;163356.31;;;17.67;59.26
19759;BME280;10038;42.662;23.278;2023-04-30T12:44:48;163324.13;;;17.55;61.21
19759;BME280;10038;42.662;23.278;2023-04-30T12:47:15;163231.66;;;17.21;59.94
19759;BME280;10038;42.662;23.278;2023-04-30T12:49:44;163401.88;;;17.85;60.11
19759;BME280;10038;42.662;23.278;2023-04-30T12:52:12;163476.88;;;18.13;60.43